Portada
METAR-TAF:

METAR-TAF

Aeroports :

Munda, New Georgia, Illes Salomó

latitud: 8-19-41S, longitud: 157-15-47E, altitud: 3 m

Observació

L'informe es va fer fa 6 hores i 42 minuts, a les 05:00 UTC
Vent 4 kt del Est/Sud-Est
Temperatura 31°C
Humitat 71%
Pressió 1011 hPa
Visibilitat 10 km o més
Escasses núvols a una alçada de 1800 ft
Núvols disperses a una alçada de 10000 ft

METAR: AGGM 250500Z 11004KT 9999 FEW018 SCT100 31/25 Q1011

Hora: 22:42 (11:42 UTC)

Pronòstic

L'informe es va fer fa 28 minuts, a les 11:14 UTC
Pronòstic vàlid del 25 a les 12 UTC al 26 a les 12 UTC
Vent 10 kt del Est/Sud-Est
Visibilitat: 1013 m
Núvols disperses a una alçada de 1600 ft

TAF: AGGM 251114Z 2512/2612 12010KT 9999 SCT016 Q 1014 1012 1011 1013

Observacions i pronòstics meteorològics de més de 4000 aeroports (METAR i TAF).

Les estacions disponibles són els punts grocs i vermells al mapa.

Posi el ratolí al punt desitjat per veure el nom de l'estació.

Feu clic per veure les observacions i els pronòstics meteorològics.

Per canviar el mapa: feu clic els botons verds amb una creu de color negre per apropar; al botó verd amb un guió per allunyar la imatge; o en les fletxes verdes per a mapes adjacents.


METAR-TAF: